createdAt,value
2018-06-05T00:02:31.718Z,14.10
2018-06-05T00:05:07.791Z,14.00
2018-06-05T00:07:42.038Z,14.00
2018-06-05T00:10:16.316Z,13.90
2018-06-05T00:12:50.575Z,13.90
2018-06-05T00:15:24.823Z,13.90
2018-06-05T00:18:03.522Z,13.80
2018-06-05T00:20:46.214Z,13.80
2018-06-05T00:23:21.483Z,13.80
2018-06-05T00:25:55.706Z,13.70
2018-06-05T00:28:31.139Z,13.70
2018-06-05T00:31:05.375Z,13.70
2018-06-05T00:33:40.640Z,13.70
2018-06-05T00:36:14.927Z,13.70
2018-06-05T00:38:50.158Z,13.80
2018-06-05T00:41:24.390Z,13.80
2018-06-05T00:43:58.649Z,13.80
2018-06-05T00:46:32.888Z,13.90
2018-06-05T00:49:07.080Z,14.00
2018-06-05T00:51:52.316Z,14.10
2018-06-05T00:54:26.546Z,14.20
2018-06-05T00:57:00.747Z,14.30
2018-06-05T00:59:34.980Z,14.40
2018-06-05T01:02:10.225Z,14.50
2018-06-05T01:04:44.432Z,14.50
2018-06-05T01:07:19.672Z,14.50
2018-06-05T01:15:59.155Z,14.30
2018-06-05T01:18:34.909Z,14.30
2018-06-05T01:21:11.380Z,14.30
2018-06-05T01:23:45.609Z,14.20
2018-06-05T01:26:19.836Z,14.20
2018-06-05T01:28:54.044Z,14.20
2018-06-05T01:31:28.280Z,14.20
2018-06-05T01:34:03.523Z,14.20
2018-06-05T01:36:40.691Z,14.10
2018-06-05T01:39:14.931Z,14.00
2018-06-05T01:44:23.247Z,14.00
2018-06-05T01:46:58.858Z,13.90
2018-06-05T01:52:39.822Z,13.90
2018-06-05T01:55:14.732Z,13.80
2018-06-05T02:00:26.975Z,13.70
2018-06-05T02:03:01.344Z,13.60
2018-06-05T02:05:35.576Z,13.60
2018-06-05T02:13:19.486Z,13.60
2018-06-05T02:15:57.840Z,13.50
2018-06-05T02:18:34.339Z,13.50
2018-06-05T02:21:10.562Z,13.50
2018-06-05T02:23:45.544Z,13.50
2018-06-05T02:26:19.850Z,13.50
2018-06-05T02:28:57.979Z,13.40
2018-06-05T02:31:33.714Z,13.40
2018-06-05T02:34:10.947Z,13.40
2018-06-05T02:36:46.500Z,13.30
2018-06-05T02:42:02.580Z,13.30
2018-06-05T02:44:37.947Z,13.30
2018-06-05T02:49:54.423Z,13.30
2018-06-05T02:52:29.842Z,13.30
2018-06-05T02:55:04.075Z,13.40
2018-06-05T02:57:39.275Z,13.40
2018-06-05T03:00:13.488Z,13.50
2018-06-05T03:03:18.696Z,13.50
2018-06-05T03:06:01.371Z,13.60
2018-06-05T03:11:10.808Z,13.70
2018-06-05T03:13:45.050Z,13.80
2018-06-05T03:16:19.299Z,13.90
2018-06-05T03:18:54.632Z,13.90
2018-06-05T03:21:30.275Z,14.00
2018-06-05T03:24:04.552Z,14.10
2018-06-05T03:26:38.816Z,14.10
2018-06-05T03:29:13.620Z,14.20
2018-06-05T03:31:47.819Z,14.20
2018-06-05T03:34:22.117Z,14.30
2018-06-05T03:36:57.380Z,14.30
2018-06-05T03:39:31.608Z,14.40
2018-06-05T03:42:05.861Z,14.50
2018-06-05T03:47:14.924Z,14.60
2018-06-05T03:49:49.178Z,14.70
2018-06-05T03:52:24.487Z,14.80
2018-06-05T03:54:58.666Z,14.80
2018-06-05T03:57:32.911Z,14.90
2018-06-05T04:00:07.299Z,15.10
2018-06-05T04:02:41.510Z,15.10
2018-06-05T04:05:15.727Z,15.20
2018-06-05T04:07:49.992Z,15.20
2018-06-05T04:10:24.197Z,15.30
2018-06-05T04:12:59.457Z,15.40
2018-06-05T04:15:33.703Z,15.60
2018-06-05T04:18:07.928Z,15.70
2018-06-05T04:20:42.665Z,15.70
2018-06-05T04:23:17.415Z,15.70
2018-06-05T04:25:52.199Z,15.80
2018-06-05T04:28:27.999Z,15.90
2018-06-05T04:31:02.758Z,15.90
2018-06-05T04:33:37.546Z,15.90
2018-06-05T04:36:11.822Z,15.90
2018-06-05T04:38:47.214Z,15.90
2018-06-05T04:43:56.324Z,15.90
2018-06-05T04:46:31.130Z,16.00
2018-06-05T04:49:06.040Z,16.10
2018-06-05T04:51:43.090Z,16.20
2018-06-05T04:54:17.869Z,16.30
2018-06-05T04:56:52.621Z,16.30
2018-06-05T04:59:27.383Z,16.30
2018-06-05T05:02:03.229Z,16.30
2018-06-05T05:04:37.998Z,16.30
2018-06-05T05:07:12.775Z,16.30
2018-06-05T05:09:47.573Z,16.30
2018-06-05T05:14:56.145Z,16.30
2018-06-05T05:17:30.922Z,16.30
2018-06-05T05:20:05.747Z,16.30
2018-06-05T05:22:40.509Z,16.30
2018-06-05T05:25:15.278Z,16.40
2018-06-05T05:27:50.103Z,16.40
2018-06-05T05:30:24.851Z,16.40
2018-06-05T05:32:59.607Z,16.50
2018-06-05T05:35:35.421Z,16.50
2018-06-05T05:38:10.190Z,16.50
2018-06-05T05:40:44.985Z,16.50
2018-06-05T05:43:19.840Z,16.60
2018-06-05T05:45:54.660Z,16.60
2018-06-05T05:48:30.538Z,16.60
2018-06-05T05:51:05.320Z,16.60
2018-06-05T05:53:40.121Z,16.60
2018-06-05T05:56:14.899Z,16.70
2018-06-05T05:58:49.701Z,16.70
2018-06-05T06:01:24.518Z,16.80
2018-06-05T06:03:59.341Z,16.80
2018-06-05T06:06:34.160Z,16.90
2018-06-05T06:09:09.951Z,17.00
2018-06-05T06:14:18.425Z,17.10
2018-06-05T06:19:27.482Z,17.10
2018-06-05T06:22:02.281Z,17.20
2018-06-05T06:24:37.034Z,17.20
2018-06-05T06:27:11.799Z,17.30
2018-06-05T06:29:46.595Z,17.30
2018-06-05T06:32:21.327Z,17.40
2018-06-05T06:34:56.143Z,17.60
2018-06-05T06:40:05.592Z,17.90
2018-06-05T06:42:40.334Z,18.00
2018-06-05T06:45:15.123Z,18.20
2018-06-05T06:47:49.899Z,18.40
2018-06-05T06:50:24.726Z,18.60
2018-06-05T06:52:59.560Z,18.90
2018-06-05T06:55:35.338Z,19.00
2018-06-05T06:58:11.194Z,19.20
2018-06-05T07:00:46.013Z,19.30
2018-06-05T07:03:20.819Z,19.30
2018-06-05T07:05:55.796Z,19.50
2018-06-05T07:08:30.560Z,19.60
2018-06-05T07:11:05.351Z,19.60
2018-06-05T07:13:40.132Z,19.60
2018-06-05T07:16:15.951Z,19.60
2018-06-05T07:18:50.723Z,20.00
2018-06-05T07:21:25.517Z,20.00
2018-06-05T07:24:00.367Z,20.20
2018-06-05T07:26:35.297Z,20.10
2018-06-05T07:29:11.082Z,20.00
2018-06-05T07:31:45.911Z,20.00
2018-06-05T07:37:11.053Z,20.00
2018-06-05T07:42:21.400Z,20.10
2018-06-05T07:44:56.200Z,20.20
2018-06-05T07:47:31.502Z,20.20
2018-06-05T07:50:06.384Z,20.10
2018-06-05T07:52:41.186Z,20.20
2018-06-05T07:55:15.973Z,20.30
2018-06-05T07:57:50.823Z,20.40
2018-06-05T08:00:26.580Z,20.50
2018-06-05T08:03:01.419Z,20.40
2018-06-05T08:05:36.187Z,20.30
2018-06-05T08:08:11.971Z,20.40
2018-06-05T08:10:46.742Z,20.40
2018-06-05T08:13:21.577Z,20.50
2018-06-05T08:15:56.377Z,20.70
2018-06-05T08:18:31.163Z,20.80
2018-06-05T08:21:08.358Z,21.10
2018-06-05T08:23:43.223Z,21.50
2018-06-05T08:26:18.167Z,22.10
2018-06-05T08:28:52.951Z,22.00
2018-06-05T08:31:27.702Z,22.30
2018-06-05T08:34:02.492Z,22.30
2018-06-05T08:39:12.076Z,22.50
2018-06-05T08:41:46.830Z,22.60
2018-06-05T08:44:21.615Z,22.60
2018-06-05T08:46:57.380Z,23.00
2018-06-05T08:49:32.162Z,23.40
2018-06-05T08:52:08.959Z,23.60
2018-06-05T08:54:43.737Z,24.00
2018-06-05T08:57:18.622Z,24.50
2018-06-05T08:59:53.491Z,24.60
2018-06-05T09:02:28.446Z,24.20
2018-06-05T09:05:05.123Z,24.40
2018-06-05T09:07:41.913Z,24.40
2018-06-05T09:12:51.654Z,23.90
2018-06-05T09:15:26.576Z,24.20
2018-06-05T09:18:01.911Z,24.30
2018-06-05T09:20:36.699Z,24.20
2018-06-05T09:23:11.455Z,24.10
2018-06-05T09:25:47.252Z,24.20
2018-06-05T09:28:22.072Z,24.10
2018-06-05T09:33:31.232Z,24.00
2018-06-05T09:36:07.069Z,24.00
2018-06-05T09:38:41.849Z,24.00
2018-06-05T09:41:16.773Z,23.70
2018-06-05T09:43:51.609Z,23.60
2018-06-05T09:46:27.415Z,23.60
2018-06-05T09:51:37.471Z,23.40
2018-06-05T09:54:12.930Z,23.30
2018-06-05T09:56:48.885Z,23.30
2018-06-05T09:59:24.759Z,23.30
2018-06-05T10:01:59.538Z,23.60
2018-06-05T10:04:34.331Z,23.80
2018-06-05T10:07:10.593Z,23.90
2018-06-05T10:09:53.172Z,24.40
2018-06-05T10:12:36.911Z,24.40
2018-06-05T10:15:11.717Z,25.00
2018-06-05T10:20:21.807Z,25.70
2018-06-05T10:22:56.746Z,25.90
2018-06-05T10:25:31.531Z,25.80
2018-06-05T10:28:06.890Z,25.90
2018-06-05T10:35:52.299Z,26.40
2018-06-05T10:43:38.754Z,26.90
2018-06-05T10:46:13.550Z,26.90
2018-06-05T10:51:23.580Z,26.80
2018-06-05T10:54:05.965Z,27.20
2018-06-05T10:56:53.563Z,27.30
2018-06-05T11:05:36.017Z,26.70
2018-06-05T11:08:40.923Z,26.50
2018-06-05T11:14:23.146Z,26.30
2018-06-05T11:17:07.196Z,26.40
2018-06-05T11:19:43.042Z,26.50
2018-06-05T11:24:54.021Z,25.80
2018-06-05T11:32:43.231Z,24.70
2018-06-05T11:35:18.098Z,24.80
2018-06-05T11:37:52.828Z,24.90
2018-06-05T11:40:27.607Z,24.90
2018-06-05T11:43:02.309Z,24.90
2018-06-05T11:45:37.078Z,24.80
2018-06-05T11:48:11.821Z,24.80
2018-06-05T11:50:46.531Z,24.80
2018-06-05T11:53:24.687Z,24.70
2018-06-05T11:56:11.853Z,24.80
2018-06-05T11:58:46.603Z,24.90
2018-06-05T12:01:21.392Z,24.90
2018-06-05T12:04:05.954Z,24.60
2018-06-05T12:09:15.664Z,24.30
2018-06-05T12:11:54.908Z,24.40
2018-06-05T12:14:33.909Z,24.40
2018-06-05T12:17:11.296Z,24.40
2018-06-05T12:19:47.734Z,24.40
2018-06-05T12:22:22.502Z,24.30
2018-06-05T12:24:58.436Z,24.40
2018-06-05T12:27:33.194Z,24.30
2018-06-05T12:33:21.675Z,24.10
2018-06-05T12:35:59.736Z,24.10
2018-06-05T12:38:34.513Z,24.20
2018-06-05T12:41:09.262Z,24.20
2018-06-05T12:43:44.671Z,24.20
2018-06-05T12:46:19.936Z,24.30
2018-06-05T12:48:58.856Z,24.30
2018-06-05T12:51:34.615Z,24.20
2018-06-05T12:54:10.098Z,24.10
2018-06-05T12:56:44.847Z,24.00
2018-06-05T12:59:19.535Z,24.10
2018-06-05T13:01:54.235Z,24.00
2018-06-05T13:07:14.590Z,24.10
2018-06-05T13:09:49.452Z,24.20
2018-06-05T13:15:00.024Z,24.20
2018-06-05T13:17:36.283Z,24.00
2018-06-05T13:22:47.766Z,24.00
2018-06-05T13:25:26.070Z,24.00
2018-06-05T13:28:02.320Z,24.00
2018-06-05T13:31:12.228Z,24.00
2018-06-05T13:33:56.840Z,24.00
2018-06-05T13:39:59.400Z,24.00
2018-06-05T13:42:40.519Z,24.10
2018-06-05T13:45:18.167Z,24.20
2018-06-05T13:48:01.112Z,24.20
2018-06-05T13:50:36.124Z,24.20
2018-06-05T13:53:26.503Z,24.20
2018-06-05T13:56:04.474Z,24.20
2018-06-05T13:58:44.603Z,24.20
2018-06-05T14:01:19.358Z,24.20
2018-06-05T14:03:56.276Z,24.10
2018-06-05T14:06:31.065Z,24.00
2018-06-05T14:11:43.163Z,23.90
2018-06-05T14:14:18.400Z,24.00
2018-06-05T14:16:53.819Z,23.90
2018-06-05T14:25:54.810Z,23.90
2018-06-05T14:28:32.844Z,23.90
2018-06-05T14:31:08.152Z,23.70
2018-06-05T14:33:46.343Z,23.60
2018-06-05T14:36:21.279Z,23.60
2018-06-05T14:38:56.253Z,23.50
2018-06-05T14:44:07.487Z,23.40
2018-06-05T14:46:42.763Z,23.40
2018-06-05T14:49:17.589Z,23.50
2018-06-05T14:51:53.551Z,23.60
2018-06-05T14:54:29.162Z,23.70
2018-06-05T14:57:03.899Z,23.70
2018-06-05T14:59:38.592Z,23.80
2018-06-05T15:02:14.384Z,23.80
2018-06-05T15:04:49.106Z,23.80
2018-06-05T15:07:23.849Z,23.70
2018-06-05T15:09:58.580Z,23.80
2018-06-05T15:12:34.426Z,23.80
2018-06-05T15:15:09.112Z,23.70
2018-06-05T15:17:43.871Z,23.70
2018-06-05T15:20:18.560Z,23.60
2018-06-05T15:22:53.323Z,23.60
2018-06-05T15:25:28.065Z,23.60
2018-06-05T15:28:03.508Z,23.60
2018-06-05T15:30:38.184Z,23.60
2018-06-05T15:33:12.931Z,23.60
2018-06-05T15:35:47.674Z,23.50
2018-06-05T15:38:23.400Z,23.40
2018-06-05T15:40:58.160Z,23.30
2018-06-05T15:43:32.970Z,23.20
2018-06-05T15:46:07.717Z,23.20
2018-06-05T15:48:42.495Z,23.20
2018-06-05T15:51:17.197Z,23.20
2018-06-05T15:53:51.925Z,23.10
2018-06-05T15:56:26.607Z,23.10
2018-06-05T15:59:02.377Z,23.00
2018-06-05T16:01:37.127Z,23.00
2018-06-05T16:04:11.847Z,22.90
2018-06-05T16:06:48.621Z,22.90
2018-06-05T16:09:23.336Z,22.90
2018-06-05T16:14:33.336Z,22.90
2018-06-05T16:17:08.080Z,22.80
2018-06-05T16:19:42.755Z,22.80
2018-06-05T16:22:17.514Z,22.80
2018-06-05T16:24:52.403Z,22.80
2018-06-05T16:30:01.353Z,22.70
2018-06-05T16:32:36.095Z,22.60
2018-06-05T16:35:10.865Z,22.70
2018-06-05T16:37:45.589Z,22.60
2018-06-05T16:40:20.329Z,22.50
2018-06-05T16:42:55.076Z,22.50
2018-06-05T16:48:04.272Z,22.50
2018-06-05T16:50:39.002Z,22.50
2018-06-05T16:53:13.704Z,22.40
2018-06-05T16:55:48.413Z,22.40
2018-06-05T16:58:23.182Z,22.30
2018-06-05T17:00:58.858Z,22.30
2018-06-05T17:03:34.697Z,22.30
2018-06-05T17:06:09.446Z,22.30
2018-06-05T17:11:18.433Z,22.30
2018-06-05T17:13:53.218Z,22.30
2018-06-05T17:19:02.203Z,22.30
2018-06-05T17:21:36.902Z,22.20
2018-06-05T17:24:11.670Z,22.20
2018-06-05T17:26:47.407Z,22.20
2018-06-05T17:29:22.224Z,22.10
2018-06-05T17:31:56.915Z,22.10
2018-06-05T17:34:43.956Z,22.10
2018-06-05T17:37:18.692Z,22.00
2018-06-05T17:39:53.430Z,22.00
2018-06-05T17:42:28.383Z,21.90
2018-06-05T17:45:03.199Z,21.90
2018-06-05T17:47:38.906Z,21.90
2018-06-05T17:50:13.665Z,21.90
2018-06-05T17:52:48.386Z,21.80
2018-06-05T17:55:25.156Z,21.80
2018-06-05T17:57:59.897Z,21.80
2018-06-05T18:00:34.690Z,21.70
2018-06-05T18:03:09.385Z,21.70
2018-06-05T18:05:44.092Z,21.60
2018-06-05T18:08:20.292Z,21.60
2018-06-05T18:10:56.047Z,21.50
2018-06-05T18:13:30.824Z,21.40
2018-06-05T18:16:05.790Z,21.40
2018-06-05T18:21:14.967Z,21.20
2018-06-05T18:23:49.989Z,21.10
2018-06-05T18:26:24.848Z,21.00
2018-06-05T18:28:59.667Z,21.00
2018-06-05T18:31:34.476Z,20.90
2018-06-05T18:34:09.235Z,20.80
2018-06-05T18:36:43.946Z,20.70
2018-06-05T18:39:18.690Z,20.50
2018-06-05T18:41:53.408Z,20.40
2018-06-05T18:44:29.169Z,20.30
2018-06-05T18:47:03.898Z,20.20
2018-06-05T18:49:38.596Z,20.10
2018-06-05T18:52:14.352Z,19.90
2018-06-05T18:54:49.107Z,19.80
2018-06-05T18:57:23.888Z,19.70
2018-06-05T18:59:58.641Z,19.60
2018-06-05T19:02:33.370Z,19.40
2018-06-05T19:05:08.091Z,19.30
2018-06-05T19:07:42.815Z,19.20
2018-06-05T19:10:18.544Z,19.00
2018-06-05T19:12:54.292Z,18.80
2018-06-05T19:15:29.047Z,18.60
2018-06-05T19:18:04.892Z,18.40
2018-06-05T19:20:39.611Z,18.30
2018-06-05T19:23:14.357Z,18.10
2018-06-05T19:25:49.097Z,17.90
2018-06-05T19:28:23.856Z,17.90
2018-06-05T19:30:58.555Z,17.80
2018-06-05T19:33:34.291Z,17.70
2018-06-05T19:36:08.992Z,17.60
2018-06-05T19:38:43.783Z,17.50
2018-06-05T19:41:18.708Z,17.40
2018-06-05T19:43:53.667Z,17.30
2018-06-05T19:46:28.410Z,17.20
2018-06-05T19:49:03.344Z,17.10
2018-06-05T19:51:38.142Z,16.80
2018-06-05T19:54:12.873Z,16.90
2018-06-05T19:56:47.567Z,16.80
2018-06-05T20:01:56.491Z,16.60
2018-06-05T20:04:31.217Z,16.50
2018-06-05T20:07:05.922Z,16.40
2018-06-05T20:09:41.674Z,16.30
2018-06-05T20:12:16.387Z,16.10
2018-06-05T20:14:52.123Z,15.90
2018-06-05T20:17:26.823Z,15.80
2018-06-05T20:20:01.603Z,15.70
2018-06-05T20:22:36.299Z,15.60
2018-06-05T20:25:11.056Z,15.50
2018-06-05T20:27:45.779Z,15.40
2018-06-05T20:30:20.017Z,15.20
2018-06-05T20:32:55.211Z,15.10
2018-06-05T20:35:29.414Z,14.90
2018-06-05T20:40:37.256Z,14.80
2018-06-05T20:43:11.541Z,14.80
2018-06-05T20:45:46.728Z,14.80
2018-06-05T20:48:20.939Z,14.70
2018-06-05T20:50:56.190Z,14.60
2018-06-05T20:53:30.326Z,14.50
2018-06-05T20:56:05.599Z,14.40
2018-06-05T20:58:39.746Z,14.30
2018-06-05T21:01:13.917Z,14.20
2018-06-05T21:03:48.079Z,14.10
2018-06-05T21:06:23.283Z,14.00
2018-06-05T21:08:57.452Z,13.90
2018-06-05T21:11:31.695Z,13.80
2018-06-05T21:14:05.884Z,13.70
2018-06-05T21:16:40.090Z,13.60
2018-06-05T21:19:14.253Z,13.50
2018-06-05T21:21:49.471Z,13.40
2018-06-05T21:26:57.336Z,13.20
2018-06-05T21:29:31.464Z,13.20
2018-06-05T21:32:05.648Z,13.10
2018-06-05T21:34:39.793Z,13.00
2018-06-05T21:37:15.005Z,13.00
2018-06-05T21:39:49.175Z,12.90
2018-06-05T21:44:57.005Z,12.70
2018-06-05T21:47:32.219Z,12.60
2018-06-05T21:50:06.435Z,12.50
2018-06-05T21:55:14.264Z,12.50
2018-06-05T21:57:48.394Z,12.50
2018-06-05T22:00:24.427Z,12.40
2018-06-05T22:02:58.607Z,12.40
2018-06-05T22:05:32.811Z,12.30
2018-06-05T22:08:08.014Z,12.30
2018-06-05T22:10:42.246Z,12.30
2018-06-05T22:13:17.451Z,12.20
2018-06-05T22:15:51.634Z,12.20
2018-06-05T22:18:25.816Z,12.20
2018-06-05T22:21:00.041Z,12.10
2018-06-05T22:23:34.191Z,12.00
2018-06-05T22:26:09.511Z,11.90
2018-06-05T22:28:43.728Z,11.90
2018-06-05T22:31:17.965Z,11.80
2018-06-05T22:33:52.070Z,11.80
2018-06-05T22:38:59.885Z,11.70
2018-06-05T22:41:34.087Z,11.70
2018-06-05T22:46:42.990Z,11.50
2018-06-05T22:49:17.120Z,11.50
2018-06-05T22:51:51.294Z,11.40
2018-06-05T22:54:25.423Z,11.30
2018-06-05T22:56:59.588Z,11.30
2018-06-05T22:59:33.748Z,11.20
2018-06-05T23:02:07.960Z,11.20
2018-06-05T23:04:42.636Z,11.20
2018-06-05T23:07:17.817Z,11.20
2018-06-05T23:09:53.059Z,11.30
2018-06-05T23:12:27.249Z,11.50
2018-06-05T23:15:01.395Z,11.70
2018-06-05T23:17:35.596Z,12.00
2018-06-05T23:20:11.002Z,12.30
2018-06-05T23:22:45.230Z,12.40
2018-06-05T23:25:23.561Z,12.60
2018-06-05T23:28:02.243Z,12.60
2018-06-05T23:30:41.703Z,12.60
2018-06-05T23:33:23.157Z,12.60
2018-06-05T23:36:08.166Z,12.50
2018-06-05T23:38:44.364Z,12.40
2018-06-05T23:41:23.223Z,12.40
2018-06-05T23:44:09.126Z,12.40
2018-06-05T23:46:43.331Z,12.50
2018-06-05T23:49:17.535Z,12.50
2018-06-05T23:51:55.741Z,12.60
2018-06-05T23:54:31.378Z,12.60
2018-06-05T23:57:05.644Z,12.60
2018-06-05T23:59:40.823Z,12.70
